Time;durP1;ratioP1;P1;durP2;ratioP2;P2;SDS_P1;SDS_P2;PMS_P1;PMS_P2;Temp;Humidity;BMP_temperature;BMP_pressure;BME280_temperature;BME280_humidity;BME280_pressure;Samples;Min_cycle;Max_cycle;Signal;HPM_P1;HPM_P2
2021/12/08 00:02:37;;;;;;;39.23;20.83;;;-3.40;99.90;;;;;;10509415;28;20198;-79
2021/12/08 00:08:00;;;;;;;45.97;22.00;;;-3.40;99.90;;;;;;10510169;28;20285;-79
2021/12/08 00:13:26;;;;;;;37.57;20.27;;;-3.50;99.90;;;;;;10509091;28;20480;-78
2021/12/08 00:18:49;;;;;;;44.23;20.83;;;-3.60;99.90;;;;;;10490852;28;20505;-80
2021/12/08 00:24:11;;;;;;;38.30;21.37;;;-3.60;99.90;;;;;;10502540;28;20200;-79
2021/12/08 00:29:33;;;;;;;45.73;22.47;;;-3.60;99.90;;;;;;10506008;28;20203;-78
2021/12/08 00:34:56;;;;;;;44.33;22.20;;;-3.60;99.90;;;;;;10505687;28;20199;-78
2021/12/08 00:40:19;;;;;;;44.23;23.30;;;-3.70;99.90;;;;;;10491657;28;20250;-78
2021/12/08 00:45:41;;;;;;;49.63;25.73;;;-3.70;99.90;;;;;;10507763;28;20286;-78
2021/12/08 00:51:04;;;;;;;58.17;29.77;;;-3.90;99.90;;;;;;10523091;28;20191;-79
2021/12/08 00:56:26;;;;;;;64.10;29.87;;;-3.90;99.90;;;;;;10471617;28;20212;-78
2021/12/08 01:01:48;;;;;;;44.73;23.23;;;-3.90;99.90;;;;;;10504128;28;20209;-78
2021/12/08 01:07:10;;;;;;;42.30;22.00;;;-4.00;99.90;;;;;;10490799;28;20591;-78
2021/12/08 01:12:32;;;;;;;45.80;22.73;;;-4.10;99.90;;;;;;10521541;28;20196;-78
2021/12/08 01:17:55;;;;;;;48.00;23.57;;;-3.90;99.90;;;;;;10504377;28;20310;-79
2021/12/08 01:23:18;;;;;;;48.23;22.23;;;-4.00;99.90;;;;;;10503492;28;20210;-78
2021/12/08 01:28:40;;;;;;;41.17;22.00;;;-4.00;99.90;;;;;;10521505;28;20284;-80
2021/12/08 01:34:03;;;;;;;43.13;21.53;;;-3.90;99.90;;;;;;10506188;28;20240;-78
2021/12/08 01:39:25;;;;;;;43.43;22.30;;;-4.10;99.90;;;;;;10508744;28;20232;-79
2021/12/08 01:50:27;;;;;;;46.17;20.97;;;-4.40;99.90;;;;;;10502274;28;20273;-78
2021/12/08 01:55:50;;;;;;;45.33;20.33;;;-4.50;99.90;;;;;;10505135;28;20393;-78
2021/12/08 02:01:14;;;;;;;42.13;19.33;;;-4.40;99.90;;;;;;10520628;28;20204;-79
2021/12/08 02:06:40;;;;;;;44.90;21.83;;;-4.40;99.90;;;;;;10485781;28;20624;-79
2021/12/08 02:12:03;;;;;;;47.80;22.33;;;-4.50;99.90;;;;;;10501485;28;20202;-78
2021/12/08 02:17:25;;;;;;;47.07;21.93;;;-4.40;99.90;;;;;;10488233;28;20207;-81
2021/12/08 02:22:48;;;;;;;43.57;21.47;;;-4.40;99.90;;;;;;10519172;28;20216;-79
2021/12/08 02:28:10;;;;;;;44.33;22.23;;;-4.40;99.90;;;;;;10504841;28;20223;-78
2021/12/08 02:50:38;;;;;;;42.37;21.03;;;-3.90;99.90;;;;;;10527440;28;20205;-78
2021/12/08 02:56:01;;;;;;;50.83;23.57;;;-3.90;99.90;;;;;;10512868;28;20221;-79
2021/12/08 03:01:23;;;;;;;44.70;21.47;;;-4.10;99.90;;;;;;10493162;28;20197;-78
2021/12/08 03:06:46;;;;;;;50.13;24.37;;;-4.20;99.90;;;;;;10495221;28;20219;-79
2021/12/08 03:12:08;;;;;;;44.80;22.07;;;-4.00;99.90;;;;;;10508583;28;20459;-80
2021/12/08 03:17:33;;;;;;;48.10;23.37;;;-3.90;99.90;;;;;;10512274;28;20199;-79
2021/12/08 03:23:01;;;;;;;43.30;21.93;;;-3.80;99.90;;;;;;10493953;28;20248;-80
2021/12/08 03:28:28;;;;;;;44.23;21.13;;;-3.70;99.90;;;;;;10494721;28;20238;-80
2021/12/08 03:33:50;;;;;;;35.40;18.97;;;-3.70;99.90;;;;;;10518748;28;20205;-80
2021/12/08 03:39:12;;;;;;;41.30;20.93;;;-3.60;99.90;;;;;;10525655;28;20424;-79
2021/12/08 03:44:34;;;;;;;38.43;19.60;;;-3.70;99.90;;;;;;10525277;28;20199;-80
2021/12/08 03:50:06;;;;;;;40.33;20.33;;;-3.80;99.90;;;;;;10524674;28;20207;-79
2021/12/08 03:55:28;;;;;;;38.33;21.27;;;-3.70;99.90;;;;;;10507541;28;20506;-78
2021/12/08 04:00:51;;;;;;;37.27;20.20;;;-3.70;99.90;;;;;;10524666;28;20442;-80
2021/12/08 04:06:26;;;;;;;43.50;24.20;;;-3.60;99.90;;;;;;10492734;28;20438;-79
2021/12/08 04:11:49;;;;;;;40.30;21.00;;;-3.60;99.90;;;;;;10505959;28;20266;-80
2021/12/08 04:17:17;;;;;;;33.30;19.23;;;-3.70;99.90;;;;;;10523967;28;20199;-79
2021/12/08 04:22:43;;;;;;;40.47;19.20;;;-3.70;99.90;;;;;;10509480;28;20441;-80
2021/12/08 04:28:10;;;;;;;42.23;22.80;;;-3.60;99.90;;;;;;10508568;28;20210;-79
2021/12/08 04:33:35;;;;;;;52.77;25.37;;;-3.60;99.90;;;;;;10509052;28;20205;-79
2021/12/08 04:39:00;;;;;;;51.27;25.67;;;-3.70;99.90;;;;;;10522836;28;20224;-78
2021/12/08 04:44:38;;;;;;;58.33;26.67;;;-3.90;99.90;;;;;;10505558;28;20196;-80
2021/12/08 05:02:41;;;;;;;57.73;28.63;;;-4.00;99.90;;;;;;10521988;28;20194;-79
2021/12/08 05:12:57;;;;;;;90.60;45.60;;;-4.10;99.90;;;;;;10504192;28;20215;-79
2021/12/08 05:18:24;;;;;;;486.47;155.77;;;-4.10;99.90;;;;;;10497081;28;20207;-79
2021/12/08 05:23:51;;;;;;;482.80;166.07;;;-4.20;99.90;;;;;;10518320;28;20197;-79
2021/12/08 05:29:39;;;;;;;306.47;146.87;;;-4.30;99.90;;;;;;10482443;28;20226;-78
2021/12/08 05:35:05;;;;;;;70.10;40.13;;;-4.20;99.90;;;;;;10521110;28;20268;-78
2021/12/08 05:40:58;;;;;;;49.60;25.03;;;-4.40;99.90;;;;;;10488458;28;20264;-79
2021/12/08 05:46:23;;;;;;;44.57;22.80;;;-4.40;99.90;;;;;;10492326;28;20230;-78
2021/12/08 05:51:49;;;;;;;34.63;18.40;;;-4.40;99.90;;;;;;10505983;28;20226;-79
2021/12/08 05:57:24;;;;;;;40.07;19.07;;;-4.60;99.90;;;;;;10502557;28;20242;-81
2021/12/08 06:02:46;;;;;;;41.43;20.27;;;-4.70;99.90;;;;;;10492650;28;20204;-80
2021/12/08 06:08:08;;;;;;;133.63;64.07;;;-4.60;99.90;;;;;;10504844;28;20219;-80
2021/12/08 06:13:31;;;;;;;259.63;122.93;;;-4.60;99.90;;;;;;10505247;28;20270;-80
2021/12/08 06:18:54;;;;;;;165.87;94.50;;;-4.70;99.90;;;;;;10466066;28;20200;-78
2021/12/08 06:24:18;;;;;;;58.50;35.27;;;-4.70;99.90;;;;;;10504912;28;20267;-80
2021/12/08 06:29:42;;;;;;;48.10;23.83;;;-4.80;99.90;;;;;;10500588;28;20269;-79
2021/12/08 06:35:07;;;;;;;52.77;24.03;;;-4.90;99.90;;;;;;10487714;28;20272;-79
2021/12/08 06:40:55;;;;;;;50.43;24.37;;;-4.90;99.90;;;;;;10503763;28;20458;-80
2021/12/08 06:46:17;;;;;;;47.20;24.00;;;-5.00;99.90;;;;;;10503776;28;20227;-79
2021/12/08 06:51:47;;;;;;;45.83;22.80;;;-5.00;99.90;;;;;;10462741;28;20234;-79
2021/12/08 06:57:20;;;;;;;45.07;22.30;;;-4.90;99.90;;;;;;10487074;28;20212;-79
2021/12/08 07:08:08;;;;;;;46.80;21.87;;;-5.10;99.90;;;;;;10518162;28;20256;-79
2021/12/08 07:13:32;;;;;;;42.57;21.57;;;-5.20;99.90;;;;;;10503456;28;20201;-79
2021/12/08 07:19:29;;;;;;;45.63;22.63;;;-5.20;99.90;;;;;;10500167;28;20209;-78
2021/12/08 07:24:53;;;;;;;69.97;37.43;;;-5.10;99.90;;;;;;10489906;28;20195;-78
2021/12/08 07:30:23;;;;;;;55.47;33.40;;;-5.10;99.90;;;;;;10501981;28;20203;-77
2021/12/08 07:35:51;;;;;;;54.20;27.03;;;-5.30;99.90;;;;;;10477093;28;20439;-79
2021/12/08 07:41:30;;;;;;;50.27;24.67;;;-5.40;99.90;;;;;;10482334;28;20239;-79
2021/12/08 07:46:58;;;;;;;50.70;21.27;;;-5.50;99.90;;;;;;10493615;28;20230;-78
2021/12/08 07:52:33;;;;;;;49.77;20.37;;;-5.60;99.90;;;;;;10507099;28;20249;-79
2021/12/08 07:57:57;;;;;;;57.03;23.33;;;-5.60;99.90;;;;;;10492360;28;20199;-79
2021/12/08 08:03:21;;;;;;;45.23;22.23;;;-5.80;99.90;;;;;;10506852;28;20202;-79
2021/12/08 08:08:43;;;;;;;47.17;21.53;;;-6.00;99.90;;;;;;10492194;28;20398;-78
2021/12/08 08:14:05;;;;;;;48.70;22.10;;;-6.00;99.90;;;;;;10509722;28;20270;-79
2021/12/08 08:19:30;;;;;;;53.53;23.83;;;-6.00;99.90;;;;;;10472756;28;20218;-77
2021/12/08 08:24:54;;;;;;;56.33;26.77;;;-5.90;99.90;;;;;;10475866;28;20237;-78
2021/12/08 08:30:34;;;;;;;52.23;23.93;;;-5.80;99.90;;;;;;10509747;28;20199;-78
2021/12/08 08:36:04;;;;;;;57.67;25.30;;;-5.80;99.90;;;;;;10517182;28;20264;-78
2021/12/08 08:41:31;;;;;;;50.20;24.87;;;-5.80;99.90;;;;;;10488462;28;20453;-78
2021/12/08 08:46:56;;;;;;;57.47;25.70;;;-5.70;99.90;;;;;;10502448;28;20272;-77
2021/12/08 08:52:29;;;;;;;61.57;27.77;;;-5.70;99.90;;;;;;10488522;28;20203;-77
2021/12/08 08:57:52;;;;;;;57.90;26.43;;;-5.50;99.90;;;;;;10501964;28;20208;-81
2021/12/08 09:03:19;;;;;;;60.83;27.57;;;-5.60;99.90;;;;;;10484361;28;20217;-78
2021/12/08 09:08:42;;;;;;;56.90;27.23;;;-5.60;99.90;;;;;;10501073;28;20234;-76
2021/12/08 09:14:13;;;;;;;55.33;25.17;;;-5.60;99.90;;;;;;10515673;28;20379;-77
2021/12/08 09:19:41;;;;;;;57.90;26.50;;;-5.60;99.90;;;;;;10492392;28;20394;-77
2021/12/08 09:25:16;;;;;;;51.33;24.13;;;-5.50;99.90;;;;;;10495036;28;20211;-77
2021/12/08 09:30:51;;;;;;;57.13;26.97;;;-5.70;99.90;;;;;;10514205;28;20207;-78
2021/12/08 09:36:20;;;;;;;59.83;27.20;;;-5.80;99.90;;;;;;10514717;28;20245;-78
2021/12/08 09:41:51;;;;;;;62.97;28.30;;;-5.60;99.90;;;;;;10500094;28;20254;-86
2021/12/08 09:47:14;;;;;;;66.60;32.87;;;-5.40;99.90;;;;;;10499815;28;20293;-77
2021/12/08 09:52:37;;;;;;;63.47;29.23;;;-5.30;99.90;;;;;;10514459;28;20218;-77
2021/12/08 09:57:59;;;;;;;66.50;30.33;;;-5.50;99.90;;;;;;10513664;28;20537;-79
2021/12/08 10:03:22;;;;;;;65.27;28.60;;;-5.50;99.90;;;;;;10515872;28;20203;-82
2021/12/08 10:08:45;;;;;;;59.30;27.20;;;-5.50;99.90;;;;;;10514017;28;20253;-80
2021/12/08 10:14:08;;;;;;;60.10;26.63;;;-5.60;99.90;;;;;;10499571;28;20195;-78
2021/12/08 10:19:31;;;;;;;60.23;26.93;;;-5.50;99.90;;;;;;10513159;28;20223;-78
2021/12/08 10:25:10;;;;;;;57.83;27.17;;;-5.60;99.90;;;;;;10505436;28;20320;-79
2021/12/08 10:30:38;;;;;;;50.13;24.97;;;-5.80;99.90;;;;;;10513637;28;20223;-80
2021/12/08 10:36:05;;;;;;;70.93;31.90;;;-5.70;99.90;;;;;;10492861;28;20211;-78
2021/12/08 10:41:53;;;;;;;51.37;24.47;;;-5.60;99.90;;;;;;10552299;28;20226;-78
2021/12/08 10:47:49;;;;;;;62.07;27.13;;;-5.60;99.90;;;;;;10526153;28;20257;-77
2021/12/08 10:59:09;;;;;;;62.40;25.60;;;-5.50;99.90;;;;;;10386026;28;20238;-76
2021/12/08 11:04:32;;;;;;;56.70;24.07;;;-5.60;99.90;;;;;;10372846;28;20221;-78
2021/12/08 11:09:55;;;;;;;56.00;26.67;;;-5.80;99.90;;;;;;10380428;28;20249;-77
2021/12/08 11:15:22;;;;;;;61.83;26.67;;;-5.80;99.90;;;;;;10376924;28;20202;-78
2021/12/08 11:21:01;;;;;;;64.87;28.80;;;-5.70;99.90;;;;;;10379894;28;20464;-80
2021/12/08 11:26:35;;;;;;;63.80;28.37;;;-5.70;99.90;;;;;;10364394;28;20233;-77
2021/12/08 11:32:22;;;;;;;68.10;29.30;;;-5.70;99.90;;;;;;10382183;28;20217;-77
2021/12/08 11:37:44;;;;;;;66.13;29.97;;;-5.60;99.90;;;;;;10498104;28;20297;-82
2021/12/08 11:43:14;;;;;;;54.53;26.47;;;-5.60;99.90;;;;;;10516731;28;20289;-79
2021/12/08 11:49:06;;;;;;;59.77;28.53;;;-5.60;99.90;;;;;;10561574;28;20222;-77
2021/12/08 11:54:33;;;;;;;57.03;26.90;;;-5.60;99.90;;;;;;10547552;28;20382;-80
2021/12/08 12:00:08;;;;;;;56.40;27.33;;;-5.40;99.90;;;;;;10528503;28;20202;-77
2021/12/08 12:05:37;;;;;;;55.27;26.13;;;-5.30;99.90;;;;;;10545915;28;20207;-78
2021/12/08 12:11:01;;;;;;;63.23;28.83;;;-5.50;99.90;;;;;;10545999;28;20202;-77
2021/12/08 12:16:24;;;;;;;50.80;25.43;;;-5.50;99.90;;;;;;10559449;28;20208;-78
2021/12/08 12:22:02;;;;;;;54.43;27.37;;;-5.50;99.90;;;;;;10513421;28;20262;-77
2021/12/08 12:27:36;;;;;;;57.57;25.83;;;-5.60;99.90;;;;;;10544820;28;20546;-80
2021/12/08 12:32:59;;;;;;;67.27;31.93;;;-5.70;99.90;;;;;;10560509;28;20232;-79
2021/12/08 12:38:42;;;;;;;77.10;37.23;;;-5.70;99.90;;;;;;10559491;28;20230;-77
2021/12/08 12:44:16;;;;;;;66.43;30.70;;;-5.70;99.90;;;;;;10541446;28;20197;-76
2021/12/08 12:49:48;;;;;;;69.20;32.47;;;-5.60;99.90;;;;;;10514704;28;20226;-83
2021/12/08 12:55:14;;;;;;;68.13;30.97;;;-5.60;99.90;;;;;;10531128;28;20204;-77
2021/12/08 13:00:48;;;;;;;65.30;31.23;;;-5.60;99.90;;;;;;10526362;28;20257;-76
2021/12/08 13:06:14;;;;;;;66.10;31.13;;;-5.50;99.90;;;;;;10521610;28;20291;-79
2021/12/08 13:12:13;;;;;;;52.13;24.93;;;-5.40;99.90;;;;;;10508520;28;20285;-78
2021/12/08 13:17:32;;;;;;;55.87;27.53;;;-5.50;99.90;;;;;;10526883;28;20199;-77
2021/12/08 13:23:01;;;;;;;52.57;24.93;;;-5.50;99.90;;;;;;10526437;28;20260;-76
2021/12/08 13:28:46;;;;;;;56.33;27.90;;;-5.60;99.90;;;;;;10557072;28;20215;-79
2021/12/08 13:34:10;;;;;;;71.90;31.83;;;-5.70;99.90;;;;;;10525880;28;20278;-77
2021/12/08 13:39:32;;;;;;;56.03;28.13;;;-5.60;99.90;;;;;;10557454;28;20471;-77
2021/12/08 13:45:16;;;;;;;47.80;25.70;;;-5.60;99.90;;;;;;10557674;28;20202;-77
2021/12/08 13:50:38;;;;;;;49.07;24.37;;;-5.70;99.90;;;;;;10541806;28;20230;-77
2021/12/08 13:56:01;;;;;;;59.67;27.20;;;-5.60;99.90;;;;;;10538197;28;20462;-77
2021/12/08 14:01:23;;;;;;;51.17;23.93;;;-5.70;99.90;;;;;;10524955;28;20278;-77
2021/12/08 14:06:45;;;;;;;69.77;30.60;;;-5.80;99.90;;;;;;10535379;28;20397;-77
2021/12/08 14:12:07;;;;;;;52.93;25.77;;;-6.00;99.90;;;;;;10542042;28;20499;-77
2021/12/08 14:17:29;;;;;;;65.13;28.97;;;-5.90;99.90;;;;;;10523192;28;20289;-77
2021/12/08 14:22:51;;;;;;;60.53;26.33;;;-5.80;99.90;;;;;;10538611;28;20247;-78
2021/12/08 14:28:41;;;;;;;51.70;25.07;;;-6.00;99.90;;;;;;10510013;28;20233;-79
2021/12/08 14:34:09;;;;;;;46.50;24.10;;;-5.90;99.90;;;;;;10525248;28;20214;-79
2021/12/08 14:39:45;;;;;;;52.37;24.70;;;-6.00;99.90;;;;;;10523746;28;20238;-83
2021/12/08 14:45:10;;;;;;;49.93;25.93;;;-6.10;99.90;;;;;;10524385;28;20289;-82
2021/12/08 14:50:32;;;;;;;53.17;25.67;;;-6.10;99.90;;;;;;10524389;28;20309;-81
2021/12/08 14:55:55;;;;;;;56.03;26.80;;;-6.10;99.90;;;;;;10538750;28;20207;-79
2021/12/08 15:01:18;;;;;;;59.83;27.80;;;-6.20;99.90;;;;;;10516055;28;20496;-83
2021/12/08 15:06:39;;;;;;;52.33;25.67;;;-6.10;99.90;;;;;;10524265;28;20221;-78
2021/12/08 15:12:05;;;;;;;54.87;25.37;;;-6.10;99.90;;;;;;10554443;28;20199;-77
2021/12/08 15:17:31;;;;;;;58.57;27.03;;;-6.10;99.90;;;;;;10520240;28;20265;-83
2021/12/08 15:22:58;;;;;;;57.70;27.43;;;-6.30;99.90;;;;;;10540611;28;20216;-82
2021/12/08 15:28:23;;;;;;;60.57;28.80;;;-6.10;99.90;;;;;;10522113;28;20222;-79
2021/12/08 15:33:48;;;;;;;72.13;30.27;;;-6.20;99.90;;;;;;10543105;28;20218;-85
2021/12/08 15:39:10;;;;;;;63.93;29.07;;;-6.10;99.90;;;;;;10503819;28;20261;-78
2021/12/08 15:44:34;;;;;;;54.70;27.60;;;-6.10;99.90;;;;;;10526562;28;20203;-77
2021/12/08 15:49:56;;;;;;;61.93;27.47;;;-6.10;99.90;;;;;;10522644;28;20234;-80
2021/12/08 15:55:25;;;;;;;54.47;27.50;;;-6.20;99.90;;;;;;10530902;28;20211;-79
2021/12/08 16:01:08;;;;;;;68.47;31.33;;;-6.10;99.90;;;;;;10533853;28;20552;-83
2021/12/08 16:06:37;;;;;;;65.93;30.63;;;-6.10;99.90;;;;;;10500374;28;20221;-78
2021/12/08 16:11:59;;;;;;;67.17;30.87;;;-6.00;99.90;;;;;;10529054;28;20209;-76
2021/12/08 16:17:22;;;;;;;68.60;34.57;;;-6.10;99.90;;;;;;10529074;28;20207;-82
2021/12/08 16:22:45;;;;;;;63.10;30.73;;;-6.10;99.90;;;;;;10519477;28;20206;-79
2021/12/08 16:28:11;;;;;;;58.37;29.00;;;-6.00;99.90;;;;;;10518823;28;20556;-78
2021/12/08 16:33:33;;;;;;;74.90;35.50;;;-6.10;99.90;;;;;;10533048;28;20509;-76
2021/12/08 16:38:54;;;;;;;58.27;27.77;;;-6.10;99.90;;;;;;10543510;28;20263;-77
2021/12/08 16:44:16;;;;;;;60.93;29.00;;;-6.00;99.90;;;;;;10532959;28;20206;-77
2021/12/08 16:49:41;;;;;;;90.03;41.60;;;-6.00;99.90;;;;;;10546565;28;20268;-78
2021/12/08 16:55:04;;;;;;;66.33;35.00;;;-5.90;99.90;;;;;;10547058;28;20198;-77
2021/12/08 17:00:34;;;;;;;81.17;38.77;;;-5.80;99.90;;;;;;10546168;28;20225;-78
2021/12/08 17:05:59;;;;;;;74.40;33.60;;;-5.80;99.90;;;;;;10516276;28;20190;-77
2021/12/08 17:11:21;;;;;;;80.07;33.93;;;-5.80;99.90;;;;;;10545935;28;20244;-76
2021/12/08 17:16:43;;;;;;;87.57;44.67;;;-5.70;99.90;;;;;;10548570;28;20195;-75
2021/12/08 17:22:05;;;;;;;103.47;48.10;;;-5.70;99.90;;;;;;10545951;28;20202;-77
2021/12/08 17:27:28;;;;;;;86.87;37.23;;;-5.70;99.90;;;;;;10563124;28;20453;-77
2021/12/08 17:32:52;;;;;;;89.07;37.53;;;-5.60;99.90;;;;;;10531777;28;20209;-78
2021/12/08 17:38:15;;;;;;;87.33;36.90;;;-5.60;99.90;;;;;;10530193;28;20239;-77
2021/12/08 17:43:38;;;;;;;82.50;33.77;;;-5.70;99.90;;;;;;10563142;28;20252;-78
2021/12/08 17:49:13;;;;;;;68.90;30.37;;;-5.70;99.90;;;;;;10547285;28;20395;-79
2021/12/08 17:54:36;;;;;;;66.93;32.23;;;-5.60;99.90;;;;;;10547874;28;20195;-80
2021/12/08 17:59:58;;;;;;;62.77;30.13;;;-5.50;99.90;;;;;;10561917;28;20562;-77
2021/12/08 18:05:23;;;;;;;60.23;30.07;;;-5.40;99.90;;;;;;10509093;28;20195;-78
2021/12/08 18:10:45;;;;;;;55.60;27.40;;;-5.40;99.90;;;;;;10525567;28;20222;-78
2021/12/08 18:16:07;;;;;;;61.90;26.23;;;-5.30;99.90;;;;;;10515462;28;20187;-78
2021/12/08 18:21:30;;;;;;;71.33;28.77;;;-5.30;99.90;;;;;;10515825;28;20199;-78
2021/12/08 18:26:52;;;;;;;67.10;28.23;;;-5.30;99.90;;;;;;10561019;28;20195;-77
2021/12/08 18:32:14;;;;;;;69.73;27.80;;;-5.30;99.90;;;;;;10546657;28;20194;-77
2021/12/08 18:37:36;;;;;;;67.27;28.90;;;-5.30;99.90;;;;;;10524910;28;20471;-78
2021/12/08 18:43:01;;;;;;;62.10;29.10;;;-5.20;99.90;;;;;;10561533;28;20229;-77
2021/12/08 18:48:23;;;;;;;55.97;27.10;;;-5.20;99.90;;;;;;10542370;28;20233;-77
2021/12/08 18:53:47;;;;;;;50.70;25.67;;;-5.30;99.90;;;;;;10546413;28;20192;-77
2021/12/08 18:59:17;;;;;;;50.00;24.70;;;-5.20;99.90;;;;;;10528693;28;20248;-77
2021/12/08 19:04:39;;;;;;;62.70;29.77;;;-5.40;99.90;;;;;;10529442;28;20508;-77
2021/12/08 19:10:02;;;;;;;62.93;27.63;;;-5.40;99.90;;;;;;10560306;28;20241;-77
2021/12/08 19:15:28;;;;;;;59.13;25.83;;;-5.50;99.90;;;;;;10517356;28;20217;-77
2021/12/08 19:20:51;;;;;;;52.40;24.67;;;-5.50;99.90;;;;;;10520293;28;20207;-76
2021/12/08 19:26:14;;;;;;;67.30;28.07;;;-5.50;99.90;;;;;;10530113;28;20233;-77
2021/12/08 19:31:39;;;;;;;55.73;25.70;;;-5.50;99.90;;;;;;10536571;28;20242;-77
2021/12/08 19:37:01;;;;;;;65.43;25.33;;;-5.60;99.90;;;;;;10567156;28;20187;-77
2021/12/08 19:42:23;;;;;;;59.67;27.33;;;-5.60;99.90;;;;;;10529972;28;20203;-77
2021/12/08 19:47:47;;;;;;;67.20;28.93;;;-5.60;99.90;;;;;;10534990;28;20222;-78
2021/12/08 19:53:09;;;;;;;60.63;25.80;;;-5.60;99.90;;;;;;10521653;28;20215;-76
2021/12/08 19:58:32;;;;;;;53.23;22.73;;;-5.50;99.90;;;;;;10520885;28;20428;-76
2021/12/08 20:03:55;;;;;;;43.23;21.67;;;-5.60;99.90;;;;;;10521337;28;20281;-77
2021/12/08 20:09:18;;;;;;;39.80;20.03;;;-5.70;99.90;;;;;;10520599;28;20226;-77
2021/12/08 20:14:41;;;;;;;40.37;20.40;;;-5.80;99.90;;;;;;10517893;28;20190;-76
2021/12/08 20:20:06;;;;;;;43.67;21.43;;;-5.80;99.90;;;;;;10548479;28;20280;-77
2021/12/08 20:25:29;;;;;;;57.23;24.17;;;-5.70;99.90;;;;;;10551442;28;20367;-77
2021/12/08 20:30:52;;;;;;;53.80;24.47;;;-5.70;99.90;;;;;;10551040;28;20218;-76
2021/12/08 20:36:17;;;;;;;57.60;24.70;;;-5.70;99.90;;;;;;10546861;28;20277;-76
2021/12/08 20:41:39;;;;;;;48.93;22.17;;;-5.60;99.90;;;;;;10547220;28;20297;-78
2021/12/08 20:47:02;;;;;;;48.57;21.43;;;-5.70;99.90;;;;;;10549594;28;20195;-77
2021/12/08 20:52:26;;;;;;;53.47;23.47;;;-5.60;99.90;;;;;;10547209;28;20277;-76
2021/12/08 20:57:49;;;;;;;55.07;23.60;;;-5.60;99.90;;;;;;10564624;28;20224;-76
2021/12/08 21:03:13;;;;;;;55.50;25.00;;;-5.60;99.90;;;;;;10532568;28;20245;-76
2021/12/08 21:08:35;;;;;;;62.77;26.40;;;-5.60;99.90;;;;;;10528706;28;20238;-76
2021/12/08 21:13:58;;;;;;;57.03;26.07;;;-5.60;99.90;;;;;;10554374;28;20217;-77
2021/12/08 21:19:21;;;;;;;98.53;36.07;;;-5.70;99.90;;;;;;10546431;28;20202;-76
2021/12/08 21:24:43;;;;;;;77.77;31.33;;;-5.70;99.90;;;;;;10563683;28;20190;-76
2021/12/08 21:30:07;;;;;;;77.60;30.13;;;-5.70;99.90;;;;;;10548598;28;20261;-79
2021/12/08 21:41:05;;;;;;;82.87;35.27;;;-5.80;99.90;;;;;;10562753;28;20232;-77
2021/12/08 21:46:27;;;;;;;81.30;33.70;;;-5.90;99.90;;;;;;10562913;28;20266;-79
2021/12/08 21:51:49;;;;;;;66.57;31.80;;;-5.90;99.90;;;;;;10562128;28;20230;-76
2021/12/08 21:57:11;;;;;;;68.57;29.53;;;-6.00;99.90;;;;;;10545037;28;20206;-76
2021/12/08 22:02:33;;;;;;;67.97;28.00;;;-6.00;99.90;;;;;;10562058;28;20198;-77
2021/12/08 22:07:55;;;;;;;69.20;28.70;;;-6.00;99.90;;;;;;10544239;28;20264;-77
2021/12/08 22:13:18;;;;;;;62.37;27.80;;;-6.00;99.90;;;;;;10529518;28;20231;-77
2021/12/08 22:18:40;;;;;;;57.83;25.87;;;-6.00;99.90;;;;;;10530363;28;20274;-76
2021/12/08 22:24:03;;;;;;;59.73;25.70;;;-6.00;99.90;;;;;;10543384;28;20198;-76
2021/12/08 22:29:25;;;;;;;55.13;25.50;;;-6.00;99.90;;;;;;10543670;28;20219;-76
2021/12/08 22:34:47;;;;;;;57.57;25.63;;;-5.90;99.90;;;;;;10546140;28;20219;-76
2021/12/08 22:40:11;;;;;;;69.57;29.27;;;-5.90;99.90;;;;;;10529457;28;20597;-77
2021/12/08 22:45:37;;;;;;;70.23;27.43;;;-5.90;99.90;;;;;;10545868;28;20244;-78
2021/12/08 22:51:00;;;;;;;60.40;27.30;;;-5.90;99.90;;;;;;10515726;28;20261;-79
2021/12/08 22:56:22;;;;;;;66.40;24.83;;;-5.80;99.90;;;;;;10529434;28;20361;-76
2021/12/08 23:01:44;;;;;;;58.03;24.20;;;-5.90;99.90;;;;;;10549043;28;20244;-78
2021/12/08 23:07:06;;;;;;;71.70;27.80;;;-5.90;99.90;;;;;;10554678;28;20199;-79
2021/12/08 23:12:28;;;;;;;63.50;25.47;;;-5.90;99.90;;;;;;10568565;28;20318;-76
2021/12/08 23:17:51;;;;;;;53.03;23.77;;;-5.80;99.90;;;;;;10537439;28;20229;-76
2021/12/08 23:23:15;;;;;;;57.20;24.93;;;-5.80;99.90;;;;;;10569309;28;20198;-78
2021/12/08 23:28:38;;;;;;;66.03;28.80;;;-5.90;99.90;;;;;;10558727;28;20444;-76
2021/12/08 23:34:02;;;;;;;70.50;30.30;;;-5.90;99.90;;;;;;10550265;28;20426;-77
2021/12/08 23:39:25;;;;;;;61.87;26.27;;;-5.80;99.90;;;;;;10522081;28;20263;-74
2021/12/08 23:44:48;;;;;;;61.70;27.20;;;-5.80;99.90;;;;;;10533497;28;20222;-77
2021/12/08 23:50:11;;;;;;;66.83;25.43;;;-5.80;99.90;;;;;;10567442;28;20218;-79
2021/12/08 23:55:35;;;;;;;62.37;24.93;;;-5.80;99.90;;;;;;10567507;28;20202;-79
